sensor_id;sensor_type;location;lat;lon;timestamp;pressure;altitude;pressure_sealevel;temperature;humidity
71126;BME280;58785;55.566;38.058;2022-12-05T00:00:15;103318.38;;;-10.36;65.98
71126;BME280;58785;55.566;38.058;2022-12-05T00:02:41;103330.22;;;-10.19;66.30
71126;BME280;58785;55.566;38.058;2022-12-05T00:05:07;103336.31;;;-10.17;66.29
71126;BME280;58785;55.566;38.058;2022-12-05T00:07:32;103325.00;;;-10.20;65.20
71126;BME280;58785;55.566;38.058;2022-12-05T00:09:58;103331.00;;;-10.21;65.67
71126;BME280;58785;55.566;38.058;2022-12-05T00:12:23;103329.13;;;-10.25;66.12
71126;BME280;58785;55.566;38.058;2022-12-05T00:14:49;103311.19;;;-10.43;66.42
71126;BME280;58785;55.566;38.058;2022-12-05T00:17:14;103313.47;;;-10.51;65.91
71126;BME280;58785;55.566;38.058;2022-12-05T00:19:40;103330.22;;;-10.41;65.82
71126;BME280;58785;55.566;38.058;2022-12-05T00:22:06;103322.16;;;-10.49;65.97
71126;BME280;58785;55.566;38.058;2022-12-05T00:24:31;103317.88;;;-10.48;66.60
71126;BME280;58785;55.566;38.058;2022-12-05T00:26:57;103323.13;;;-10.45;66.75
71126;BME280;58785;55.566;38.058;2022-12-05T00:29:22;103316.16;;;-10.48;65.91
71126;BME280;58785;55.566;38.058;2022-12-05T00:31:48;103312.50;;;-10.53;66.26
71126;BME280;58785;55.566;38.058;2022-12-05T00:34:13;103296.84;;;-10.57;66.42
71126;BME280;58785;55.566;38.058;2022-12-05T00:36:39;103298.66;;;-10.55;66.14
71126;BME280;58785;55.566;38.058;2022-12-05T00:39:09;103280.00;;;-10.70;66.01
71126;BME280;58785;55.566;38.058;2022-12-05T00:41:35;103300.84;;;-10.64;65.86
71126;BME280;58785;55.566;38.058;2022-12-05T00:44:02;103299.09;;;-10.65;65.94
71126;BME280;58785;55.566;38.058;2022-12-05T00:46:29;103274.50;;;-10.78;66.52
71126;BME280;58785;55.566;38.058;2022-12-05T00:48:56;103257.97;;;-10.83;65.84
71126;BME280;58785;55.566;38.058;2022-12-05T00:51:28;103277.16;;;-10.76;66.03
71126;BME280;58785;55.566;38.058;2022-12-05T00:53:56;103285.09;;;-10.71;65.54
71126;BME280;58785;55.566;38.058;2022-12-05T00:56:24;103280.59;;;-10.76;65.97
71126;BME280;58785;55.566;38.058;2022-12-05T00:58:52;103291.78;;;-10.75;66.21
71126;BME280;58785;55.566;38.058;2022-12-05T01:01:24;103275.06;;;-10.85;66.64
71126;BME280;58785;55.566;38.058;2022-12-05T01:03:53;103268.97;;;-10.87;65.73
71126;BME280;58785;55.566;38.058;2022-12-05T01:06:19;103288.97;;;-10.81;66.58
71126;BME280;58785;55.566;38.058;2022-12-05T01:08:44;103294.13;;;-10.81;66.56
71126;BME280;58785;55.566;38.058;2022-12-05T01:11:13;103292.69;;;-10.75;65.98
71126;BME280;58785;55.566;38.058;2022-12-05T01:13:39;103286.66;;;-10.75;65.63
71126;BME280;58785;55.566;38.058;2022-12-05T01:16:05;103277.03;;;-10.79;66.17
71126;BME280;58785;55.566;38.058;2022-12-05T01:18:31;103296.78;;;-10.80;65.76
71126;BME280;58785;55.566;38.058;2022-12-05T01:20:57;103281.84;;;-10.87;66.09
71126;BME280;58785;55.566;38.058;2022-12-05T01:23:23;103276.75;;;-10.85;66.19
71126;BME280;58785;55.566;38.058;2022-12-05T01:25:50;103260.31;;;-10.89;65.78
71126;BME280;58785;55.566;38.058;2022-12-05T01:28:16;103267.41;;;-10.83;66.14
71126;BME280;58785;55.566;38.058;2022-12-05T01:30:45;103276.28;;;-10.77;66.21
71126;BME280;58785;55.566;38.058;2022-12-05T01:33:11;103254.34;;;-10.88;65.63
71126;BME280;58785;55.566;38.058;2022-12-05T01:35:38;103272.88;;;-10.76;65.60
71126;BME280;58785;55.566;38.058;2022-12-05T01:38:04;103247.75;;;-10.81;65.64
71126;BME280;58785;55.566;38.058;2022-12-05T01:40:31;103265.03;;;-10.79;65.82
71126;BME280;58785;55.566;38.058;2022-12-05T01:42:58;103253.44;;;-10.88;66.33
71126;BME280;58785;55.566;38.058;2022-12-05T01:45:38;103234.47;;;-10.90;66.84
71126;BME280;58785;55.566;38.058;2022-12-05T01:48:22;103252.97;;;-10.80;66.23
71126;BME280;58785;55.566;38.058;2022-12-05T01:50:50;103223.84;;;-10.98;66.20
71126;BME280;58785;55.566;38.058;2022-12-05T01:53:16;103253.56;;;-10.85;66.28
71126;BME280;58785;55.566;38.058;2022-12-05T01:55:44;103213.41;;;-11.01;66.24
71126;BME280;58785;55.566;38.058;2022-12-05T01:58:10;103232.84;;;-10.88;65.78
71126;BME280;58785;55.566;38.058;2022-12-05T02:00:38;103228.34;;;-10.92;66.18
71126;BME280;58785;55.566;38.058;2022-12-05T02:03:07;103234.59;;;-10.87;66.38
71126;BME280;58785;55.566;38.058;2022-12-05T02:05:36;103245.66;;;-10.90;66.28
71126;BME280;58785;55.566;38.058;2022-12-05T02:08:07;103240.63;;;-10.87;66.02
71126;BME280;58785;55.566;38.058;2022-12-05T02:10:40;103228.50;;;-10.89;65.57
71126;BME280;58785;55.566;38.058;2022-12-05T02:24:53;103231.25;;;-10.85;65.30
71126;BME280;58785;55.566;38.058;2022-12-05T02:30:15;103223.69;;;-10.82;65.59
71126;BME280;58785;55.566;38.058;2022-12-05T02:36:15;103225.28;;;-10.84;66.40
71126;BME280;58785;55.566;38.058;2022-12-05T02:39:10;103222.91;;;-10.79;66.18
71126;BME280;58785;55.566;38.058;2022-12-05T02:41:47;103220.41;;;-10.78;65.68
71126;BME280;58785;55.566;38.058;2022-12-05T02:44:19;103215.31;;;-10.76;65.15
71126;BME280;58785;55.566;38.058;2022-12-05T02:46:47;103219.69;;;-10.74;65.23
71126;BME280;58785;55.566;38.058;2022-12-05T02:49:18;103212.78;;;-10.75;65.89
71126;BME280;58785;55.566;38.058;2022-12-05T02:51:54;103193.25;;;-10.90;65.31
71126;BME280;58785;55.566;38.058;2022-12-05T02:54:25;103200.22;;;-10.88;65.51
71126;BME280;58785;55.566;38.058;2022-12-05T02:56:52;103207.31;;;-10.82;66.20
71126;BME280;58785;55.566;38.058;2022-12-05T02:59:19;103192.22;;;-10.94;65.91
71126;BME280;58785;55.566;38.058;2022-12-05T03:01:45;103187.22;;;-10.91;65.59
71126;BME280;58785;55.566;38.058;2022-12-05T03:04:12;103188.97;;;-10.90;65.91
71126;BME280;58785;55.566;38.058;2022-12-05T03:06:45;103198.69;;;-10.83;66.15
71126;BME280;58785;55.566;38.058;2022-12-05T03:09:18;103190.72;;;-10.89;65.85
71126;BME280;58785;55.566;38.058;2022-12-05T03:11:55;103186.41;;;-10.90;65.42
71126;BME280;58785;55.566;38.058;2022-12-05T03:14:37;103186.44;;;-10.88;65.69
71126;BME280;58785;55.566;38.058;2022-12-05T03:17:10;103190.72;;;-10.89;66.22
71126;BME280;58785;55.566;38.058;2022-12-05T03:19:54;103181.97;;;-10.92;65.48
71126;BME280;58785;55.566;38.058;2022-12-05T03:22:31;103177.63;;;-10.93;65.85
71126;BME280;58785;55.566;38.058;2022-12-05T03:25:01;103189.91;;;-10.88;65.76
71126;BME280;58785;55.566;38.058;2022-12-05T03:27:43;103189.09;;;-10.87;65.54
71126;BME280;58785;55.566;38.058;2022-12-05T03:30:13;103176.66;;;-10.97;65.26
71126;BME280;58785;55.566;38.058;2022-12-05T03:35:35;103191.06;;;-10.81;65.83
71126;BME280;58785;55.566;38.058;2022-12-05T03:38:13;103174.44;;;-10.88;65.19
71126;BME280;58785;55.566;38.058;2022-12-05T03:40:48;103184.69;;;-10.89;65.39
71126;BME280;58785;55.566;38.058;2022-12-05T03:51:07;103176.09;;;-11.11;65.92
71126;BME280;58785;55.566;38.058;2022-12-05T03:53:39;103165.25;;;-11.23;65.90
71126;BME280;58785;55.566;38.058;2022-12-05T03:56:10;103173.19;;;-11.18;65.98
71126;BME280;58785;55.566;38.058;2022-12-05T03:58:42;103171.28;;;-11.22;65.87
71126;BME280;58785;55.566;38.058;2022-12-05T04:01:10;103138.03;;;-11.37;66.06
71126;BME280;58785;55.566;38.058;2022-12-05T04:03:42;103163.31;;;-11.28;65.98
71126;BME280;58785;55.566;38.058;2022-12-05T04:06:18;103158.09;;;-11.30;65.94
71126;BME280;58785;55.566;38.058;2022-12-05T04:08:59;103161.41;;;-11.33;65.80
71126;BME280;58785;55.566;38.058;2022-12-05T04:11:32;103155.53;;;-11.30;65.41
71126;BME280;58785;55.566;38.058;2022-12-05T04:14:04;103151.25;;;-11.29;65.77
71126;BME280;58785;55.566;38.058;2022-12-05T04:16:40;103157.72;;;-11.18;65.55
71126;BME280;58785;55.566;38.058;2022-12-05T04:19:52;103139.38;;;-11.26;65.74
71126;BME280;58785;55.566;38.058;2022-12-05T04:22:38;103125.56;;;-11.28;65.38
71126;BME280;58785;55.566;38.058;2022-12-05T04:25:07;103146.34;;;-11.23;65.43
71126;BME280;58785;55.566;38.058;2022-12-05T04:28:17;103137.44;;;-11.32;65.45
71126;BME280;58785;55.566;38.058;2022-12-05T04:31:06;103137.22;;;-11.36;65.84
71126;BME280;58785;55.566;38.058;2022-12-05T04:33:35;103139.19;;;-11.31;66.03
71126;BME280;58785;55.566;38.058;2022-12-05T04:36:09;103134.09;;;-11.29;65.88
71126;BME280;58785;55.566;38.058;2022-12-05T04:38:42;103133.22;;;-11.29;65.52
71126;BME280;58785;55.566;38.058;2022-12-05T04:41:14;103122.72;;;-11.34;65.17
71126;BME280;58785;55.566;38.058;2022-12-05T04:43:43;103125.94;;;-11.40;65.54
71126;BME280;58785;55.566;38.058;2022-12-05T04:46:12;103120.78;;;-11.40;65.65
71126;BME280;58785;55.566;38.058;2022-12-05T04:48:41;103126.16;;;-11.34;65.85
71126;BME280;58785;55.566;38.058;2022-12-05T04:51:14;103121.91;;;-11.33;65.64
71126;BME280;58785;55.566;38.058;2022-12-05T04:53:43;103114.13;;;-11.35;65.54
71126;BME280;58785;55.566;38.058;2022-12-05T04:56:11;103122.16;;;-11.27;65.51
71126;BME280;58785;55.566;38.058;2022-12-05T04:58:38;103117.28;;;-11.21;65.74
71126;BME280;58785;55.566;38.058;2022-12-05T05:01:18;103115.66;;;-11.19;65.16
71126;BME280;58785;55.566;38.058;2022-12-05T05:03:59;103118.16;;;-11.20;65.27
71126;BME280;58785;55.566;38.058;2022-12-05T05:06:27;103114.06;;;-11.15;65.07
71126;BME280;58785;55.566;38.058;2022-12-05T05:08:55;103108.75;;;-11.20;64.75
71126;BME280;58785;55.566;38.058;2022-12-05T05:11:26;103105.22;;;-11.22;65.42
71126;BME280;58785;55.566;38.058;2022-12-05T05:13:53;103123.50;;;-11.16;65.24
71126;BME280;58785;55.566;38.058;2022-12-05T05:16:21;103113.94;;;-11.18;64.97
71126;BME280;58785;55.566;38.058;2022-12-05T05:18:51;103122.56;;;-11.18;65.19
71126;BME280;58785;55.566;38.058;2022-12-05T05:21:18;103124.13;;;-11.21;65.08
71126;BME280;58785;55.566;38.058;2022-12-05T05:23:44;103115.44;;;-11.23;65.10
71126;BME280;58785;55.566;38.058;2022-12-05T05:26:09;103106.59;;;-11.30;65.24
71126;BME280;58785;55.566;38.058;2022-12-05T05:28:35;103124.75;;;-11.27;65.16
71126;BME280;58785;55.566;38.058;2022-12-05T05:31:02;103096.03;;;-11.36;65.20
71126;BME280;58785;55.566;38.058;2022-12-05T05:33:27;103101.50;;;-11.28;65.30
71126;BME280;58785;55.566;38.058;2022-12-05T05:35:53;103117.00;;;-11.27;65.13
71126;BME280;58785;55.566;38.058;2022-12-05T05:38:19;103110.88;;;-11.31;65.24
71126;BME280;58785;55.566;38.058;2022-12-05T05:40:44;103110.28;;;-11.23;65.11
71126;BME280;58785;55.566;38.058;2022-12-05T05:43:10;103093.84;;;-11.27;65.44
71126;BME280;58785;55.566;38.058;2022-12-05T05:45:36;103103.69;;;-11.17;64.99
71126;BME280;58785;55.566;38.058;2022-12-05T05:48:01;103092.19;;;-11.25;64.69
71126;BME280;58785;55.566;38.058;2022-12-05T05:50:27;103108.59;;;-11.23;64.54
71126;BME280;58785;55.566;38.058;2022-12-05T05:52:53;103107.66;;;-11.25;65.29
71126;BME280;58785;55.566;38.058;2022-12-05T05:55:18;103099.88;;;-11.26;65.06
71126;BME280;58785;55.566;38.058;2022-12-05T05:57:44;103110.16;;;-11.26;64.81
71126;BME280;58785;55.566;38.058;2022-12-05T06:00:11;103106.84;;;-11.24;65.15
71126;BME280;58785;55.566;38.058;2022-12-05T06:02:37;103095.53;;;-11.27;64.43
71126;BME280;58785;55.566;38.058;2022-12-05T06:05:03;103106.44;;;-11.12;65.14
71126;BME280;58785;55.566;38.058;2022-12-05T06:07:29;103100.75;;;-11.05;64.64
71126;BME280;58785;55.566;38.058;2022-12-05T06:09:54;103104.41;;;-11.00;64.54
71126;BME280;58785;55.566;38.058;2022-12-05T06:12:20;103097.50;;;-11.01;64.75
71126;BME280;58785;55.566;38.058;2022-12-05T06:14:47;103077.38;;;-11.10;64.30
71126;BME280;58785;55.566;38.058;2022-12-05T06:17:13;103089.97;;;-10.95;64.08
71126;BME280;58785;55.566;38.058;2022-12-05T06:19:38;103096.59;;;-10.81;64.43
71126;BME280;58785;55.566;38.058;2022-12-05T06:22:04;103084.53;;;-10.82;64.30
71126;BME280;58785;55.566;38.058;2022-12-05T06:24:29;103087.44;;;-10.73;63.59
71126;BME280;58785;55.566;38.058;2022-12-05T06:26:55;103067.28;;;-10.83;64.23
71126;BME280;58785;55.566;38.058;2022-12-05T06:29:21;103102.22;;;-10.68;64.51
71126;BME280;58785;55.566;38.058;2022-12-05T06:31:46;103088.50;;;-10.67;63.60
71126;BME280;58785;55.566;38.058;2022-12-05T06:34:12;103086.75;;;-10.68;63.85
71126;BME280;58785;55.566;38.058;2022-12-05T06:36:37;103082.94;;;-10.56;63.97
71126;BME280;58785;55.566;38.058;2022-12-05T06:39:03;103066.53;;;-10.58;64.24
71126;BME280;58785;55.566;38.058;2022-12-05T06:41:29;103067.47;;;-10.56;63.75
71126;BME280;58785;55.566;38.058;2022-12-05T06:43:56;103057.81;;;-10.61;63.39
71126;BME280;58785;55.566;38.058;2022-12-05T06:46:23;103066.81;;;-10.50;63.04
71126;BME280;58785;55.566;38.058;2022-12-05T06:48:54;103089.59;;;-10.38;63.60
71126;BME280;58785;55.566;38.058;2022-12-05T06:51:20;103082.66;;;-10.41;63.46
71126;BME280;58785;55.566;38.058;2022-12-05T06:53:46;103078.72;;;-10.31;63.56
71126;BME280;58785;55.566;38.058;2022-12-05T06:56:15;103079.03;;;-10.22;62.76
71126;BME280;58785;55.566;38.058;2022-12-05T06:58:43;103076.00;;;-10.10;63.21
71126;BME280;58785;55.566;38.058;2022-12-05T07:01:11;103072.69;;;-10.06;63.03
71126;BME280;58785;55.566;38.058;2022-12-05T07:03:56;103078.13;;;-9.99;63.49
71126;BME280;58785;55.566;38.058;2022-12-05T07:06:22;103063.53;;;-9.98;62.64
71126;BME280;58785;55.566;38.058;2022-12-05T07:08:48;103063.97;;;-9.86;62.83
71126;BME280;58785;55.566;38.058;2022-12-05T07:11:13;103076.38;;;-9.76;62.59
71126;BME280;58785;55.566;38.058;2022-12-05T07:13:39;103070.41;;;-9.73;63.17
71126;BME280;58785;55.566;38.058;2022-12-05T07:16:05;103074.97;;;-9.66;63.45
71126;BME280;58785;55.566;38.058;2022-12-05T07:18:32;103088.22;;;-9.57;63.14
71126;BME280;58785;55.566;38.058;2022-12-05T07:21:00;103065.88;;;-9.55;62.27
71126;BME280;58785;55.566;38.058;2022-12-05T07:23:26;103067.94;;;-9.45;62.23
71126;BME280;58785;55.566;38.058;2022-12-05T07:25:52;103082.97;;;-9.33;62.74
71126;BME280;58785;55.566;38.058;2022-12-05T07:28:17;103075.66;;;-9.21;61.83
71126;BME280;58785;55.566;38.058;2022-12-05T07:30:43;103085.16;;;-9.20;62.86
71126;BME280;58785;55.566;38.058;2022-12-05T07:33:09;103069.88;;;-9.12;62.63
71126;BME280;58785;55.566;38.058;2022-12-05T07:35:34;103070.31;;;-9.00;62.09
71126;BME280;58785;55.566;38.058;2022-12-05T07:38:00;103066.28;;;-8.90;62.70
71126;BME280;58785;55.566;38.058;2022-12-05T07:40:25;103058.97;;;-8.77;61.63
71126;BME280;58785;55.566;38.058;2022-12-05T07:42:51;103044.47;;;-8.72;62.47
71126;BME280;58785;55.566;38.058;2022-12-05T07:45:19;103054.44;;;-8.55;62.55
71126;BME280;58785;55.566;38.058;2022-12-05T07:47:45;103057.09;;;-8.52;62.51
71126;BME280;58785;55.566;38.058;2022-12-05T07:50:10;103048.59;;;-8.48;61.57
71126;BME280;58785;55.566;38.058;2022-12-05T07:52:36;103054.78;;;-8.43;62.20
71126;BME280;58785;55.566;38.058;2022-12-05T07:55:01;103047.28;;;-8.32;61.92
71126;BME280;58785;55.566;38.058;2022-12-05T07:57:29;103052.84;;;-8.20;61.79
71126;BME280;58785;55.566;38.058;2022-12-05T07:59:55;103040.06;;;-8.14;61.83
71126;BME280;58785;55.566;38.058;2022-12-05T08:02:21;103033.88;;;-8.19;61.74
71126;BME280;58785;55.566;38.058;2022-12-05T08:04:46;103039.41;;;-8.07;62.38
71126;BME280;58785;55.566;38.058;2022-12-05T08:07:12;103034.53;;;-7.95;61.84
71126;BME280;58785;55.566;38.058;2022-12-05T08:09:38;103022.06;;;-7.78;61.36
71126;BME280;58785;55.566;38.058;2022-12-05T08:12:03;103029.47;;;-7.59;61.24
71126;BME280;58785;55.566;38.058;2022-12-05T08:14:29;103003.63;;;-7.56;61.91
71126;BME280;58785;55.566;38.058;2022-12-05T08:16:54;103008.41;;;-7.36;61.01
71126;BME280;58785;55.566;38.058;2022-12-05T08:19:20;103006.34;;;-7.15;61.23
71126;BME280;58785;55.566;38.058;2022-12-05T08:21:46;103010.38;;;-6.90;60.70
71126;BME280;58785;55.566;38.058;2022-12-05T08:24:12;103002.84;;;-6.79;60.84
71126;BME280;58785;55.566;38.058;2022-12-05T08:26:38;103009.31;;;-6.59;60.69
71126;BME280;58785;55.566;38.058;2022-12-05T08:29:12;103003.53;;;-6.46;60.64
71126;BME280;58785;55.566;38.058;2022-12-05T08:31:43;102993.25;;;-6.41;60.25
71126;BME280;58785;55.566;38.058;2022-12-05T08:34:12;103002.75;;;-6.42;60.79
71126;BME280;58785;55.566;38.058;2022-12-05T08:36:38;102983.44;;;-6.54;60.79
71126;BME280;58785;55.566;38.058;2022-12-05T08:39:05;102979.09;;;-6.57;60.99
71126;BME280;58785;55.566;38.058;2022-12-05T08:41:32;102990.34;;;-6.56;61.31
71126;BME280;58785;55.566;38.058;2022-12-05T08:43:59;102953.66;;;-6.73;61.32
71126;BME280;58785;55.566;38.058;2022-12-05T08:46:31;102973.69;;;-6.66;61.57
71126;BME280;58785;55.566;38.058;2022-12-05T08:48:57;102960.56;;;-6.74;61.94
71126;BME280;58785;55.566;38.058;2022-12-05T08:51:22;102952.75;;;-6.75;61.88
71126;BME280;58785;55.566;38.058;2022-12-05T08:53:48;102981.63;;;-6.60;62.00
71126;BME280;58785;55.566;38.058;2022-12-05T08:56:13;102966.97;;;-6.56;61.83
71126;BME280;58785;55.566;38.058;2022-12-05T08:58:42;102973.97;;;-6.52;61.88
71126;BME280;58785;55.566;38.058;2022-12-05T09:01:16;102961.78;;;-6.56;61.76
71126;BME280;58785;55.566;38.058;2022-12-05T09:03:43;102948.00;;;-6.54;61.50
71126;BME280;58785;55.566;38.058;2022-12-05T09:06:12;102976.13;;;-6.31;61.06
71126;BME280;58785;55.566;38.058;2022-12-05T09:08:40;102973.69;;;-6.22;61.49
71126;BME280;58785;55.566;38.058;2022-12-05T09:11:18;102966.06;;;-6.15;61.04
71126;BME280;58785;55.566;38.058;2022-12-05T09:13:45;102957.44;;;-6.12;61.55
71126;BME280;58785;55.566;38.058;2022-12-05T09:16:13;102954.97;;;-6.06;61.56
71126;BME280;58785;55.566;38.058;2022-12-05T09:18:42;102949.91;;;-6.00;61.57
71126;BME280;58785;55.566;38.058;2022-12-05T09:21:11;102934.25;;;-6.03;61.06
71126;BME280;58785;55.566;38.058;2022-12-05T09:23:37;102946.44;;;-5.99;60.86
71126;BME280;58785;55.566;38.058;2022-12-05T09:26:03;102942.13;;;-6.00;61.47
71126;BME280;58785;55.566;38.058;2022-12-05T09:28:31;102929.00;;;-6.06;61.43
71126;BME280;58785;55.566;38.058;2022-12-05T09:30:59;102938.53;;;-6.05;61.58
71126;BME280;58785;55.566;38.058;2022-12-05T09:33:29;102928.97;;;-6.09;61.78
71126;BME280;58785;55.566;38.058;2022-12-05T09:35:55;102929.91;;;-6.02;61.47
71126;BME280;58785;55.566;38.058;2022-12-05T09:38:21;102915.34;;;-5.96;61.54
71126;BME280;58785;55.566;38.058;2022-12-05T09:41:44;102921.56;;;-5.83;61.54
71126;BME280;58785;55.566;38.058;2022-12-05T09:44:04;102913.88;;;-5.77;61.32
71126;BME280;58785;55.566;38.058;2022-12-05T09:46:55;102920.69;;;-5.84;61.31
71126;BME280;58785;55.566;38.058;2022-12-05T09:49:23;102910.25;;;-5.88;61.57
71126;BME280;58785;55.566;38.058;2022-12-05T09:51:50;102925.38;;;-5.61;61.14
71126;BME280;58785;55.566;38.058;2022-12-05T09:54:17;102908.19;;;-5.53;61.01
71126;BME280;58785;55.566;38.058;2022-12-05T09:56:43;102915.25;;;-5.43;60.64
71126;BME280;58785;55.566;38.058;2022-12-05T09:59:14;102909.16;;;-5.46;60.14
71126;BME280;58785;55.566;38.058;2022-12-05T10:15:03;102893.09;;;-5.18;60.41
71126;BME280;58785;55.566;38.058;2022-12-05T10:17:38;102887.94;;;-5.13;60.39
71126;BME280;58785;55.566;38.058;2022-12-05T10:20:49;102884.63;;;-5.03;60.06
71126;BME280;58785;55.566;38.058;2022-12-05T10:23:20;102877.66;;;-5.04;60.21
71126;BME280;58785;55.566;38.058;2022-12-05T10:25:53;102865.50;;;-5.07;60.27
71126;BME280;58785;55.566;38.058;2022-12-05T10:31:16;102885.34;;;-5.15;60.67
71126;BME280;58785;55.566;38.058;2022-12-05T10:33:47;102875.81;;;-5.14;60.69
71126;BME280;58785;55.566;38.058;2022-12-05T10:36:15;102875.06;;;-5.04;60.31
71126;BME280;58785;55.566;38.058;2022-12-05T10:38:42;102860.19;;;-5.16;60.84
71126;BME280;58785;55.566;38.058;2022-12-05T10:41:11;102855.97;;;-5.06;60.69
71126;BME280;58785;55.566;38.058;2022-12-05T10:43:40;102857.56;;;-5.17;60.38
71126;BME280;58785;55.566;38.058;2022-12-05T10:46:07;102866.22;;;-5.18;60.77
71126;BME280;58785;55.566;38.058;2022-12-05T10:48:36;102852.22;;;-5.30;60.54
71126;BME280;58785;55.566;38.058;2022-12-05T10:51:03;102856.69;;;-5.18;60.73
71126;BME280;58785;55.566;38.058;2022-12-05T10:56:01;102857.59;;;-5.14;60.69
71126;BME280;58785;55.566;38.058;2022-12-05T10:58:28;102865.41;;;-5.14;61.47
71126;BME280;58785;55.566;38.058;2022-12-05T11:00:57;102860.19;;;-5.14;61.04
71126;BME280;58785;55.566;38.058;2022-12-05T11:03:30;102857.59;;;-5.13;61.06
71126;BME280;58785;55.566;38.058;2022-12-05T11:06:00;102848.06;;;-5.14;60.78
71126;BME280;58785;55.566;38.058;2022-12-05T11:08:31;102849.88;;;-5.10;61.41
71126;BME280;58785;55.566;38.058;2022-12-05T11:11:17;102846.31;;;-5.15;60.93
71126;BME280;58785;55.566;38.058;2022-12-05T11:14:21;102848.00;;;-5.20;60.98
71126;BME280;58785;55.566;38.058;2022-12-05T11:16:56;102827.97;;;-5.27;61.50
71126;BME280;58785;55.566;38.058;2022-12-05T11:19:26;102851.53;;;-5.15;60.91
71126;BME280;58785;55.566;38.058;2022-12-05T11:21:53;102837.66;;;-5.12;61.19
71126;BME280;58785;55.566;38.058;2022-12-05T11:24:29;102833.44;;;-5.04;61.60
71126;BME280;58785;55.566;38.058;2022-12-05T11:26:57;102838.63;;;-5.06;61.34
71126;BME280;58785;55.566;38.058;2022-12-05T11:29:35;102829.94;;;-5.08;61.04
71126;BME280;58785;55.566;38.058;2022-12-05T11:32:04;102820.34;;;-5.12;61.01
71126;BME280;58785;55.566;38.058;2022-12-05T11:34:45;102809.88;;;-5.19;61.15
71126;BME280;58785;55.566;38.058;2022-12-05T11:37:20;102809.94;;;-5.12;61.36
71126;BME280;58785;55.566;38.058;2022-12-05T11:39:47;102807.31;;;-5.13;61.29
71126;BME280;58785;55.566;38.058;2022-12-05T12:06:45;102802.53;;;-4.78;61.29
71126;BME280;58785;55.566;38.058;2022-12-05T12:09:29;102794.66;;;-4.81;60.81
71126;BME280;58785;55.566;38.058;2022-12-05T12:20:39;102764.91;;;-5.11;61.03
71126;BME280;58785;55.566;38.058;2022-12-05T12:23:14;102790.09;;;-5.02;61.21
71126;BME280;58785;55.566;38.058;2022-12-05T12:48:29;102757.16;;;-5.73;62.59
71126;BME280;58785;55.566;38.058;2022-12-05T12:51:01;102737.09;;;-5.83;62.16
71126;BME280;58785;55.566;38.058;2022-12-05T12:53:39;102758.00;;;-5.77;62.39
71126;BME280;58785;55.566;38.058;2022-12-05T12:59:03;102740.53;;;-5.90;62.25
71126;BME280;58785;55.566;38.058;2022-12-05T13:05:36;102735.28;;;-5.93;62.35
71126;BME280;58785;55.566;38.058;2022-12-05T13:10:42;102725.63;;;-6.02;62.36
71126;BME280;58785;55.566;38.058;2022-12-05T13:13:13;102700.41;;;-6.11;62.75
71126;BME280;58785;55.566;38.058;2022-12-05T13:15:44;102724.00;;;-5.94;62.61
71126;BME280;58785;55.566;38.058;2022-12-05T13:18:23;102702.34;;;-5.96;62.49
71126;BME280;58785;55.566;38.058;2022-12-05T13:20:55;102715.47;;;-5.84;62.42
71126;BME280;58785;55.566;38.058;2022-12-05T13:23:24;102720.66;;;-5.82;62.61
71126;BME280;58785;55.566;38.058;2022-12-05T13:25:53;102721.53;;;-5.83;62.41
71126;BME280;58785;55.566;38.058;2022-12-05T13:28:31;102713.69;;;-5.88;62.80
71126;BME280;58785;55.566;38.058;2022-12-05T13:30:59;102721.47;;;-5.91;62.37
71126;BME280;58785;55.566;38.058;2022-12-05T13:33:56;102716.16;;;-6.00;62.81
71126;BME280;58785;55.566;38.058;2022-12-05T13:36:22;102723.00;;;-6.03;63.29
71126;BME280;58785;55.566;38.058;2022-12-05T13:39:17;102715.28;;;-6.00;63.05
71126;BME280;58785;55.566;38.058;2022-12-05T13:42:02;102690.09;;;-6.04;63.23
71126;BME280;58785;55.566;38.058;2022-12-05T13:47:51;102695.41;;;-5.95;62.68
71126;BME280;58785;55.566;38.058;2022-12-05T13:50:32;102690.13;;;-6.03;62.70
71126;BME280;58785;55.566;38.058;2022-12-05T13:53:20;102694.34;;;-6.11;62.85
71126;BME280;58785;55.566;38.058;2022-12-05T13:55:56;102698.63;;;-6.13;63.16
71126;BME280;58785;55.566;38.058;2022-12-05T14:00:48;102676.81;;;-6.26;63.41
71126;BME280;58785;55.566;38.058;2022-12-05T14:05:57;102685.47;;;-6.25;62.93
71126;BME280;58785;55.566;38.058;2022-12-05T14:21:59;102682.75;;;-6.33;63.49
71126;BME280;58785;55.566;38.058;2022-12-05T14:27:26;102676.78;;;-6.30;62.93
71126;BME280;58785;55.566;38.058;2022-12-05T14:32:43;102669.78;;;-6.33;62.99
71126;BME280;58785;55.566;38.058;2022-12-05T14:35:38;102668.00;;;-6.37;63.60
71126;BME280;58785;55.566;38.058;2022-12-05T14:38:06;102646.19;;;-6.50;63.57
71126;BME280;58785;55.566;38.058;2022-12-05T14:40:43;102660.13;;;-6.43;63.96
71126;BME280;58785;55.566;38.058;2022-12-05T14:43:29;102644.47;;;-6.49;63.26
71126;BME280;58785;55.566;38.058;2022-12-05T14:46:05;102651.47;;;-6.44;63.59
71126;BME280;58785;55.566;38.058;2022-12-05T14:48:32;102648.88;;;-6.42;63.37
71126;BME280;58785;55.566;38.058;2022-12-05T14:50:59;102635.91;;;-6.42;63.16
71126;BME280;58785;55.566;38.058;2022-12-05T14:53:30;102634.22;;;-6.40;63.38
71126;BME280;58785;55.566;38.058;2022-12-05T15:04:14;102633.16;;;-6.53;63.50
71126;BME280;58785;55.566;38.058;2022-12-05T15:07:18;102639.16;;;-6.57;63.58
71126;BME280;58785;55.566;38.058;2022-12-05T15:10:20;102634.81;;;-6.59;63.36
71126;BME280;58785;55.566;38.058;2022-12-05T15:12:48;102626.94;;;-6.64;63.49
71126;BME280;58785;55.566;38.058;2022-12-05T15:15:40;102630.31;;;-6.71;63.98
71126;BME280;58785;55.566;38.058;2022-12-05T15:20:47;102632.75;;;-6.80;64.04
71126;BME280;58785;55.566;38.058;2022-12-05T15:31:55;102608.28;;;-6.96;63.96